createdAt,value
2019-04-28T00:01:08.658Z,1.70
2019-04-28T00:06:18.243Z,1.53
2019-04-28T00:08:48.165Z,1.50
2019-04-28T00:11:18.365Z,1.67
2019-04-28T00:13:48.301Z,1.70
2019-04-28T00:16:18.287Z,1.60
2019-04-28T00:18:48.515Z,1.87
2019-04-28T00:21:18.430Z,1.70
2019-04-28T00:23:48.358Z,2.00
2019-04-28T00:26:18.270Z,1.70
2019-04-28T00:28:48.471Z,1.87
2019-04-28T00:31:18.395Z,2.20
2019-04-28T00:33:48.322Z,2.20
2019-04-28T00:36:18.256Z,2.10
2019-04-28T00:38:48.544Z,2.10
2019-04-28T00:41:18.464Z,1.87
2019-04-28T00:43:48.390Z,2.20
2019-04-28T00:46:18.578Z,2.13
2019-04-28T00:48:48.511Z,2.03
2019-04-28T00:51:18.725Z,2.20
2019-04-28T00:53:50.770Z,2.17
2019-04-28T00:56:18.811Z,2.10
2019-04-28T00:58:48.807Z,2.70
2019-04-28T01:01:18.985Z,3.07
2019-04-28T01:03:48.948Z,2.60
2019-04-28T01:06:18.881Z,2.80
2019-04-28T01:08:49.146Z,2.50
2019-04-28T01:11:19.072Z,2.57
2019-04-28T01:13:49.011Z,3.00
2019-04-28T01:16:19.402Z,2.93
2019-04-28T01:18:50.193Z,3.00
2019-04-28T01:21:20.308Z,2.80
2019-04-28T01:23:50.148Z,3.03
2019-04-28T01:26:20.011Z,2.87
2019-04-28T01:28:49.682Z,3.27
2019-04-28T01:31:19.356Z,2.70
2019-04-28T01:33:50.155Z,2.80
2019-04-28T01:36:20.283Z,3.57
2019-04-28T01:38:50.052Z,2.60
2019-04-28T01:41:19.815Z,2.83
2019-04-28T01:43:48.639Z,2.90
2019-04-28T01:46:19.892Z,3.53
2019-04-28T01:48:49.753Z,2.97
2019-04-28T01:51:22.079Z,2.93
2019-04-28T01:53:52.279Z,2.80
2019-04-28T01:56:22.198Z,3.27
2019-04-28T01:58:52.135Z,2.93
2019-04-28T02:01:22.053Z,2.97
2019-04-28T02:03:52.012Z,3.10
2019-04-28T02:06:21.934Z,2.60
2019-04-28T02:11:31.192Z,2.27
2019-04-28T02:14:01.155Z,2.67
2019-04-28T02:16:31.457Z,2.53
2019-04-28T02:19:01.376Z,2.57
2019-04-28T02:21:31.321Z,1.90
2019-04-28T02:24:01.595Z,2.50
2019-04-28T02:26:31.551Z,2.00
2019-04-28T02:29:01.443Z,2.17
2019-04-28T02:31:31.887Z,2.10
2019-04-28T02:34:01.321Z,2.20
2019-04-28T02:36:31.319Z,2.13
2019-04-28T02:39:01.168Z,2.03
2019-04-28T02:41:33.777Z,2.40
2019-04-28T02:44:01.122Z,1.87
2019-04-28T02:46:30.980Z,1.87
2019-04-28T02:49:01.010Z,1.60
2019-04-28T02:51:31.131Z,1.57
2019-04-28T02:54:01.047Z,2.00
2019-04-28T02:56:31.033Z,1.80
2019-04-28T02:59:01.203Z,1.87
2019-04-28T03:01:31.032Z,2.00
2019-04-28T03:04:00.789Z,2.03
2019-04-28T03:06:30.891Z,2.07
2019-04-28T03:09:00.630Z,2.03
2019-04-28T03:11:31.554Z,1.77
2019-04-28T03:14:01.145Z,2.30
2019-04-28T03:16:30.714Z,2.00
2019-04-28T03:19:01.360Z,2.50
2019-04-28T03:21:31.311Z,2.20
2019-04-28T03:24:01.284Z,2.40
2019-04-28T03:26:31.046Z,2.13
2019-04-28T03:29:00.987Z,2.00
2019-04-28T03:32:03.868Z,2.03
2019-04-28T03:34:03.850Z,1.87
2019-04-28T03:36:33.010Z,2.17
2019-04-28T03:39:00.819Z,2.20
2019-04-28T03:41:31.117Z,2.37
2019-04-28T03:44:00.692Z,2.83
2019-04-28T03:46:30.757Z,2.60
2019-04-28T03:49:01.009Z,2.97
2019-04-28T03:51:31.129Z,2.83
2019-04-28T03:54:03.002Z,2.63
2019-04-28T03:56:31.106Z,3.23
2019-04-28T03:59:00.868Z,3.53
2019-04-28T04:01:30.661Z,3.40
2019-04-28T04:04:03.089Z,4.00
2019-04-28T04:06:31.164Z,4.13
2019-04-28T04:09:00.561Z,3.53
2019-04-28T04:11:31.221Z,4.43
2019-04-28T04:14:01.662Z,4.00
2019-04-28T04:16:30.878Z,4.77
2019-04-28T04:19:00.815Z,4.60
2019-04-28T04:21:30.962Z,4.83
2019-04-28T04:24:01.050Z,3.83
2019-04-28T04:26:32.908Z,4.70
2019-04-28T04:29:00.958Z,4.77
2019-04-28T04:31:31.753Z,4.57
2019-04-28T04:34:02.835Z,4.50
2019-04-28T04:36:31.026Z,4.50
2019-04-28T04:41:40.874Z,5.97
2019-04-28T04:44:11.063Z,5.40
2019-04-28T04:46:41.496Z,7.60
2019-04-28T04:49:10.699Z,7.77
2019-04-28T04:51:43.440Z,6.07
2019-04-28T04:54:10.830Z,5.73
2019-04-28T04:56:40.257Z,4.73
2019-04-28T04:59:10.260Z,5.03
2019-04-28T05:01:40.829Z,5.00
2019-04-28T05:04:09.619Z,5.17
2019-04-28T05:06:41.224Z,5.27
2019-04-28T05:09:10.171Z,4.67
2019-04-28T05:11:39.989Z,5.03
2019-04-28T05:14:11.563Z,5.20
2019-04-28T05:16:40.082Z,5.43
2019-04-28T05:19:10.365Z,4.57
2019-04-28T05:21:40.264Z,4.87
2019-04-28T05:24:15.791Z,5.43
2019-04-28T05:26:42.523Z,5.17
2019-04-28T05:29:10.108Z,5.80
2019-04-28T05:31:40.202Z,5.80
2019-04-28T05:34:11.544Z,5.23
2019-04-28T05:36:44.413Z,4.83
2019-04-28T05:39:10.484Z,4.90
2019-04-28T05:41:40.061Z,4.67
2019-04-28T05:44:10.146Z,4.83
2019-04-28T05:46:40.353Z,5.00
2019-04-28T05:49:10.308Z,4.83
2019-04-28T05:51:40.301Z,4.90
2019-04-28T05:54:09.928Z,4.87
2019-04-28T05:56:39.963Z,5.37
2019-04-28T05:59:10.286Z,4.90
2019-04-28T06:01:40.678Z,4.60
2019-04-28T06:04:11.224Z,5.20
2019-04-28T06:06:40.581Z,5.37
2019-04-28T06:09:10.348Z,5.00
2019-04-28T06:11:40.563Z,4.70
2019-04-28T06:14:10.522Z,4.63
2019-04-28T06:16:40.875Z,4.83
2019-04-28T06:19:10.482Z,4.90
2019-04-28T06:21:41.663Z,5.30
2019-04-28T06:24:11.881Z,4.40
2019-04-28T06:26:41.795Z,4.63
2019-04-28T06:29:11.737Z,4.30
2019-04-28T06:31:42.035Z,4.07
2019-04-28T06:34:12.242Z,4.27
2019-04-28T06:36:42.471Z,4.50
2019-04-28T06:39:12.699Z,4.97
2019-04-28T06:41:42.602Z,5.20
2019-04-28T06:44:12.537Z,4.07
2019-04-28T06:46:42.454Z,4.37
2019-04-28T06:49:12.743Z,5.60
2019-04-28T06:51:42.668Z,5.27
2019-04-28T06:54:12.598Z,4.13
2019-04-28T06:56:42.509Z,4.93
2019-04-28T06:59:12.802Z,5.10
2019-04-28T07:01:42.729Z,4.40
2019-04-28T07:04:12.651Z,4.60
2019-04-28T07:06:42.860Z,4.00
2019-04-28T07:11:52.123Z,5.13
2019-04-28T07:14:22.059Z,4.43
2019-04-28T07:16:51.978Z,5.30
2019-04-28T07:19:21.908Z,4.10
2019-04-28T07:21:51.829Z,5.10
2019-04-28T07:24:22.075Z,4.50
2019-04-28T07:26:51.993Z,4.77
2019-04-28T07:29:21.944Z,4.40
2019-04-28T07:31:52.117Z,4.17
2019-04-28T07:34:22.063Z,4.13
2019-04-28T07:36:52.281Z,4.97
2019-04-28T07:42:01.543Z,4.53
2019-04-28T07:44:31.475Z,5.27
2019-04-28T07:47:01.403Z,4.20
2019-04-28T07:49:31.336Z,5.20
2019-04-28T07:52:01.263Z,5.93
2019-04-28T07:54:31.215Z,5.17
2019-04-28T07:57:01.488Z,5.80
2019-04-28T07:59:31.811Z,5.73
2019-04-28T08:02:02.032Z,5.27
2019-04-28T08:04:32.255Z,5.60
2019-04-28T08:07:02.165Z,5.10
2019-04-28T08:09:32.105Z,5.93
2019-04-28T08:12:02.305Z,5.70
2019-04-28T08:14:32.238Z,5.73
2019-04-28T08:17:02.215Z,5.53
2019-04-28T08:19:32.100Z,6.77
2019-04-28T08:22:02.274Z,6.27
2019-04-28T08:24:32.530Z,6.57
2019-04-28T08:27:02.420Z,6.60
2019-04-28T08:29:32.368Z,8.17
2019-04-28T08:32:02.288Z,8.33
2019-04-28T08:34:32.229Z,6.43
2019-04-28T08:37:02.513Z,5.17
2019-04-28T08:39:32.777Z,6.20
2019-04-28T08:42:02.729Z,6.20
2019-04-28T08:44:32.651Z,7.13
2019-04-28T08:47:02.578Z,7.27
2019-04-28T08:49:32.509Z,8.00
2019-04-28T08:52:02.458Z,8.07
2019-04-28T08:54:32.387Z,7.90
2019-04-28T08:57:02.693Z,7.97
2019-04-28T08:59:32.645Z,8.03
2019-04-28T09:02:02.576Z,8.50
2019-04-28T09:04:32.506Z,7.83
2019-04-28T09:07:02.455Z,7.27
2019-04-28T09:09:32.382Z,7.33
2019-04-28T09:12:02.323Z,7.87
2019-04-28T09:14:32.245Z,7.77
2019-04-28T09:17:02.498Z,8.07
2019-04-28T09:19:32.451Z,7.40
2019-04-28T09:24:42.086Z,7.33
2019-04-28T09:27:12.300Z,7.70
2019-04-28T09:29:42.276Z,7.17
2019-04-28T09:32:12.552Z,8.03
2019-04-28T09:34:42.775Z,8.87
2019-04-28T09:37:12.700Z,8.20
2019-04-28T09:39:42.999Z,7.93
2019-04-28T09:44:52.311Z,7.63
2019-04-28T09:47:22.654Z,7.83
2019-04-28T09:49:52.617Z,8.10
2019-04-28T09:52:22.892Z,7.33
2019-04-28T09:54:53.111Z,8.10
2019-04-28T09:57:23.335Z,7.17
2019-04-28T09:59:53.488Z,7.83
2019-04-28T10:02:23.423Z,7.33
2019-04-28T10:04:53.712Z,7.13
2019-04-28T10:07:23.661Z,6.87
2019-04-28T10:12:32.944Z,6.97
2019-04-28T10:15:02.887Z,6.57
2019-04-28T10:17:32.828Z,6.47
2019-04-28T10:20:02.844Z,6.93
2019-04-28T10:22:32.780Z,6.60
2019-04-28T10:25:02.739Z,7.00
2019-04-28T10:27:32.762Z,7.07
2019-04-28T10:30:02.699Z,7.63
2019-04-28T10:32:32.619Z,7.07
2019-04-28T10:35:02.550Z,7.60
2019-04-28T10:37:32.813Z,7.70
2019-04-28T10:40:02.720Z,6.90
2019-04-28T10:42:32.655Z,7.67
2019-04-28T10:45:02.575Z,7.67
2019-04-28T10:47:32.516Z,6.87
2019-04-28T10:50:02.800Z,7.12
2019-04-28T10:52:32.735Z,7.13
2019-04-28T10:55:02.921Z,6.57
2019-04-28T10:57:32.877Z,5.43
2019-04-28T11:00:02.796Z,6.20
2019-04-28T11:02:33.061Z,4.90
2019-04-28T11:05:08.505Z,5.17
2019-04-28T11:07:32.921Z,4.90
2019-04-28T11:10:02.841Z,5.43
2019-04-28T11:12:33.124Z,5.30
2019-04-28T11:15:03.046Z,5.47
2019-04-28T11:17:32.979Z,4.70
2019-04-28T11:20:03.268Z,4.90
2019-04-28T11:25:12.941Z,5.00
2019-04-28T11:27:42.928Z,4.08
2019-04-28T11:30:12.848Z,5.13
2019-04-28T11:35:22.366Z,4.72
2019-04-28T11:37:52.643Z,4.47
2019-04-28T11:40:22.882Z,4.23
2019-04-28T11:42:52.811Z,4.17
2019-04-28T11:45:22.771Z,3.58
2019-04-28T11:47:52.689Z,3.63
2019-04-28T11:50:22.625Z,4.28
2019-04-28T11:52:52.559Z,4.55
2019-04-28T11:55:22.516Z,4.03
2019-04-28T11:57:52.490Z,4.00
2019-04-28T12:00:22.450Z,4.53
2019-04-28T12:05:34.676Z,4.28
2019-04-28T12:08:01.766Z,4.40
2019-04-28T12:10:31.710Z,4.33
2019-04-28T12:13:01.963Z,3.70
2019-04-28T12:15:31.906Z,3.80
2019-04-28T12:18:01.835Z,3.33
2019-04-28T12:20:31.786Z,4.22
2019-04-28T12:23:02.046Z,4.62
2019-04-28T12:28:11.620Z,4.78
2019-04-28T12:33:21.530Z,4.08
2019-04-28T12:35:51.478Z,3.83
2019-04-28T12:38:21.434Z,3.98
2019-04-28T12:40:51.694Z,3.47
2019-04-28T12:43:21.624Z,3.60
2019-04-28T12:45:51.935Z,3.35
2019-04-28T12:48:21.839Z,3.45
2019-04-28T12:50:52.052Z,3.60
2019-04-28T12:56:01.587Z,4.60
2019-04-28T12:58:31.847Z,3.85
2019-04-28T13:01:01.794Z,4.17
2019-04-28T13:06:11.410Z,7.57
2019-04-28T13:08:41.329Z,6.87
2019-04-28T13:11:11.284Z,8.00
2019-04-28T13:13:41.224Z,7.50
2019-04-28T13:16:11.154Z,6.50
2019-04-28T13:21:20.415Z,6.72
2019-04-28T13:23:50.626Z,8.10
2019-04-28T13:26:20.562Z,6.63
2019-04-28T13:28:50.506Z,7.55
2019-04-28T13:31:20.439Z,7.05
2019-04-28T13:33:56.289Z,7.00
2019-04-28T13:36:20.300Z,7.08
2019-04-28T13:38:50.521Z,6.33
2019-04-28T13:41:20.747Z,6.58
2019-04-28T13:43:50.669Z,6.43
2019-04-28T13:49:00.199Z,7.25
2019-04-28T13:51:30.539Z,7.12
2019-04-28T13:54:00.447Z,6.33
2019-04-28T13:56:30.582Z,6.30
2019-04-28T13:59:00.893Z,6.42
2019-04-28T14:01:30.846Z,5.25
2019-04-28T14:06:40.133Z,4.72
2019-04-28T14:09:10.354Z,5.65
2019-04-28T14:11:40.674Z,5.78
2019-04-28T14:14:10.580Z,5.25
2019-04-28T14:16:40.669Z,5.75
2019-04-28T14:19:10.937Z,4.30
2019-04-28T14:21:40.874Z,4.33
2019-04-28T14:24:10.808Z,3.87
2019-04-28T14:26:40.734Z,3.77
2019-04-28T14:29:10.667Z,4.00
2019-04-28T14:31:40.590Z,3.70
2019-04-28T14:34:10.526Z,3.60
2019-04-28T14:36:42.230Z,2.72
2019-04-28T14:39:10.598Z,3.65
2019-04-28T14:41:40.492Z,4.00
2019-04-28T14:44:10.477Z,3.27
2019-04-28T14:46:40.349Z,3.50
2019-04-28T14:49:10.551Z,3.90
2019-04-28T14:51:40.472Z,3.47
2019-04-28T14:54:10.401Z,3.62
2019-04-28T14:56:40.661Z,3.50
2019-04-28T14:59:10.594Z,4.00
2019-04-28T15:01:40.544Z,3.37
2019-04-28T15:04:10.481Z,3.37
2019-04-28T15:06:40.466Z,3.77
2019-04-28T15:09:10.326Z,3.55
2019-04-28T15:11:40.544Z,3.35
2019-04-28T15:14:10.864Z,3.75
2019-04-28T15:16:40.854Z,4.45
2019-04-28T15:19:10.770Z,3.60
2019-04-28T15:21:41.026Z,3.30
2019-04-28T15:24:10.964Z,3.30
2019-04-28T15:26:40.892Z,3.45
2019-04-28T15:29:10.872Z,3.80
2019-04-28T15:31:41.090Z,3.22
2019-04-28T15:34:11.024Z,3.47
2019-04-28T15:36:40.951Z,3.40
2019-04-28T15:39:11.237Z,3.83
2019-04-28T15:41:41.151Z,3.15
2019-04-28T15:44:11.372Z,3.45
2019-04-28T15:46:41.288Z,3.83
2019-04-28T15:49:11.509Z,3.90
2019-04-28T15:51:41.432Z,3.45
2019-04-28T15:54:11.382Z,3.75
2019-04-28T15:56:41.646Z,3.67
2019-04-28T15:59:11.667Z,4.45
2019-04-28T16:01:41.605Z,3.90
2019-04-28T16:04:11.902Z,3.87
2019-04-28T16:06:41.841Z,4.10
2019-04-28T16:09:11.764Z,3.85
2019-04-28T16:11:42.048Z,4.50
2019-04-28T16:14:12.263Z,4.28
2019-04-28T16:16:42.491Z,4.77
2019-04-28T16:21:51.837Z,4.67
2019-04-28T16:24:22.054Z,4.83
2019-04-28T16:26:52.389Z,4.65
2019-04-28T16:29:22.308Z,4.83
2019-04-28T16:31:52.246Z,4.80
2019-04-28T16:37:01.860Z,4.73
2019-04-28T16:39:31.785Z,4.73
2019-04-28T16:42:01.734Z,5.08
2019-04-28T16:44:31.909Z,5.30
2019-04-28T16:47:02.116Z,4.83
2019-04-28T16:49:32.080Z,5.00
2019-04-28T16:52:02.014Z,5.30
2019-04-28T16:54:31.946Z,5.40
2019-04-28T16:57:01.931Z,5.20
2019-04-28T16:59:31.868Z,5.30
2019-04-28T17:02:01.805Z,4.53
2019-04-28T17:04:31.727Z,4.10
2019-04-28T17:07:01.940Z,4.20
2019-04-28T17:09:31.870Z,3.92
2019-04-28T17:12:01.812Z,5.00
2019-04-28T17:14:31.731Z,3.87
2019-04-28T17:17:01.662Z,3.95
2019-04-28T17:19:31.916Z,4.15
2019-04-28T17:22:02.168Z,4.20
2019-04-28T17:24:32.094Z,3.87
2019-04-28T17:27:02.383Z,3.60
2019-04-28T17:29:32.298Z,3.95
2019-04-28T17:32:02.238Z,3.90
2019-04-28T17:34:32.475Z,3.77
2019-04-28T17:37:02.647Z,3.42
2019-04-28T17:39:32.563Z,6.47
2019-04-28T17:42:02.777Z,6.13
2019-04-28T17:44:33.024Z,5.20
2019-04-28T17:47:02.955Z,3.85
2019-04-28T17:49:32.894Z,4.15
2019-04-28T17:52:02.836Z,3.87
2019-04-28T17:57:12.132Z,3.80
2019-04-28T17:59:42.408Z,3.83
2019-04-28T18:02:12.738Z,4.27
2019-04-28T18:04:42.690Z,4.53
2019-04-28T18:07:12.969Z,4.20
2019-04-28T18:09:43.196Z,4.62
2019-04-28T18:12:13.139Z,4.40
2019-04-28T18:14:43.054Z,3.70
2019-04-28T18:17:13.009Z,4.30
2019-04-28T18:19:42.927Z,3.77
2019-04-28T18:24:52.505Z,4.40
2019-04-28T18:27:22.421Z,3.80
2019-04-28T18:29:52.392Z,4.03
2019-04-28T18:32:22.557Z,3.73
2019-04-28T18:34:52.489Z,3.47
2019-04-28T18:37:22.410Z,4.53
2019-04-28T18:39:52.342Z,9.47
2019-04-28T18:42:22.518Z,5.87
2019-04-28T18:44:52.457Z,11.63
2019-04-28T18:47:22.380Z,12.40
2019-04-28T18:49:52.666Z,10.27
2019-04-28T18:52:22.592Z,7.97
2019-04-28T18:54:52.958Z,7.10
2019-04-28T18:57:22.833Z,8.00
2019-04-28T18:59:53.146Z,7.90
2019-04-28T19:02:24.376Z,7.43
2019-04-28T19:04:54.594Z,6.93
2019-04-28T19:07:24.517Z,6.27
2019-04-28T19:09:54.526Z,5.20
2019-04-28T19:12:24.875Z,4.50
2019-04-28T19:14:54.805Z,4.63
2019-04-28T19:17:25.098Z,5.70
2019-04-28T19:19:55.049Z,4.50
2019-04-28T19:22:24.966Z,4.90
2019-04-28T19:24:54.906Z,5.50
2019-04-28T19:27:24.818Z,6.40
2019-04-28T19:29:54.758Z,5.93
2019-04-28T19:32:24.980Z,6.73
2019-04-28T19:34:54.905Z,5.87
2019-04-28T19:37:24.816Z,4.37
2019-04-28T19:39:55.116Z,3.73
2019-04-28T19:42:25.030Z,3.40
2019-04-28T19:44:54.967Z,3.70
2019-04-28T19:47:24.883Z,3.70
2019-04-28T19:49:54.812Z,4.83
2019-04-28T19:52:25.086Z,4.13
2019-04-28T19:54:55.019Z,3.67
2019-04-28T19:57:25.238Z,3.50
2019-04-28T19:59:55.173Z,3.50
2019-04-28T20:02:25.216Z,3.20
2019-04-28T20:04:55.374Z,4.17
2019-04-28T20:07:25.612Z,3.80
2019-04-28T20:09:55.545Z,3.63
2019-04-28T20:12:25.725Z,3.70
2019-04-28T20:14:55.942Z,3.03
2019-04-28T20:17:25.872Z,3.30
2019-04-28T20:19:55.802Z,2.93
2019-04-28T20:22:25.724Z,3.40
2019-04-28T20:24:55.656Z,3.07
2019-04-28T20:27:25.587Z,3.20
2019-04-28T20:29:55.836Z,3.30
2019-04-28T20:32:25.860Z,3.07
2019-04-28T20:34:55.705Z,2.50
2019-04-28T20:37:25.620Z,3.00
2019-04-28T20:39:55.548Z,3.30
2019-04-28T20:42:25.464Z,5.53
2019-04-28T20:44:55.397Z,3.50
2019-04-28T20:47:25.317Z,3.10
2019-04-28T20:49:55.543Z,3.03
2019-04-28T20:52:25.460Z,3.50
2019-04-28T20:54:55.375Z,3.80
2019-04-28T20:57:25.327Z,5.67
2019-04-28T20:59:55.238Z,5.90
2019-04-28T21:02:25.521Z,4.97
2019-04-28T21:04:55.465Z,4.70
2019-04-28T21:07:25.778Z,5.10
2019-04-28T21:09:55.699Z,4.20
2019-04-28T21:12:25.627Z,3.70
2019-04-28T21:14:55.960Z,3.63
2019-04-28T21:17:25.848Z,3.10
2019-04-28T21:19:55.774Z,3.23
2019-04-28T21:22:25.707Z,2.67
2019-04-28T21:24:55.981Z,3.63
2019-04-28T21:27:25.914Z,3.67
2019-04-28T21:29:56.117Z,2.97
2019-04-28T21:32:26.079Z,3.40
2019-04-28T21:34:56.335Z,3.67
2019-04-28T21:37:26.556Z,3.27
2019-04-28T21:39:56.484Z,2.70
2019-04-28T21:42:26.421Z,3.73
2019-04-28T21:44:56.353Z,3.33
2019-04-28T21:47:26.617Z,3.37
2019-04-28T21:49:56.851Z,3.20
2019-04-28T21:52:27.040Z,3.00
2019-04-28T21:54:57.282Z,3.13
2019-04-28T21:57:27.208Z,3.20
2019-04-28T21:59:57.436Z,3.00
2019-04-28T22:02:27.340Z,3.23
2019-04-28T22:04:57.259Z,2.83
2019-04-28T22:07:27.455Z,2.40
2019-04-28T22:09:57.404Z,3.27
2019-04-28T22:12:27.338Z,3.10
2019-04-28T22:14:57.607Z,3.00
2019-04-28T22:17:27.565Z,2.90
2019-04-28T22:19:57.499Z,3.07
2019-04-28T22:22:27.432Z,3.70
2019-04-28T22:24:57.347Z,3.23
2019-04-28T22:27:27.289Z,4.07
2019-04-28T22:29:57.217Z,3.43
2019-04-28T22:32:27.405Z,3.30
2019-04-28T22:34:57.628Z,3.50
2019-04-28T22:37:27.556Z,3.20
2019-04-28T22:39:57.469Z,3.30
2019-04-28T22:42:27.402Z,3.70
2019-04-28T22:44:57.332Z,3.00
2019-04-28T22:47:27.279Z,3.03
2019-04-28T22:49:57.193Z,2.90
2019-04-28T22:52:27.134Z,3.10
2019-04-28T22:54:57.365Z,3.07
2019-04-28T22:57:27.582Z,2.87
2019-04-28T22:59:57.505Z,3.00
2019-04-28T23:02:27.430Z,2.83
2019-04-28T23:04:57.608Z,2.40
2019-04-28T23:07:27.853Z,3.20
2019-04-28T23:09:58.049Z,2.80
2019-04-28T23:12:27.981Z,2.80
2019-04-28T23:14:57.912Z,2.80
2019-04-28T23:17:27.832Z,2.80
2019-04-28T23:19:57.763Z,2.97
2019-04-28T23:22:27.677Z,2.83
2019-04-28T23:24:57.639Z,3.13
2019-04-28T23:27:27.556Z,3.37
2019-04-28T23:29:57.517Z,2.90
2019-04-28T23:32:27.794Z,3.27
2019-04-28T23:34:57.755Z,3.93
2019-04-28T23:37:27.671Z,3.23
2019-04-28T23:39:57.937Z,3.23
2019-04-28T23:42:27.872Z,3.13
2019-04-28T23:44:58.080Z,3.07
2019-04-28T23:47:27.993Z,3.50
2019-04-28T23:49:57.930Z,3.77
2019-04-28T23:52:27.851Z,3.40
2019-04-28T23:54:57.778Z,3.40
2019-04-28T23:57:27.719Z,3.20
2019-04-28T23:59:57.627Z,3.10
